Detall de PIREP

Printer-friendly versionPDF version

[2015/01/05 10:55:00]
Flight IATA:CT1004
Pilot Number:012
Company ICAO:CAT
Aircraft Type:A320/E
PAX:150
Departing Airport: LFMP
Destination Airport: LDSP
Alternate Airport:LDZA
Online: VATSIM
Route:FJR UL127 STP UM985 ABN UZ388 KALMO UM730 FRZ UM872 VABMO UM730 BAGNO UM872 PIDEP UM730 TORPO
Flight Level:F350
No Slew and time accel
No pause
Crash detect
Detect pilot in Cockpit between each 30 and 45 minutes
10:55 Zero fuel Weight: 119069 Lbs, Fuel Weight: 18681 Lbs
10:55 VATSIM:LFMP 051030Z AUTO 05005KT 9999 NSC 10/05 Q1031
10:55 VATSIM:LDSP 051030Z 02016G26KT 340V070 CAVOK 07/M11 Q1027 NOSIG
10:55 X-MAS CHARTER
10:55 Parking Brakes off
10:58 Take-off
10:58 Take off Weight: 137230 Lbs
10:58 Wind: 049º @ 005 Knots Heading: 329º
10:58 POS N42º 44´ 58´´ E002º 51´ 55´´
10:58 Flaps:3 at 167 Knots
10:58 Gear Up: 168 Knots
10:59 Flaps:2 at 198 Knots
10:59 Flaps:1 at 200 Knots
10:59 Flaps:0 at 202 Knots
11:13 Wind:000º@037 Knots Heading: 106º Ground Speed: 459 Knots Altitude 34041 ft
11:13 TOC
11:13 Fuel Weight: 14251 Lb
11:28 Wind:356º@057 Knots Heading: 043º Ground Speed: 409 Knots Altitude 37470 ft
11:43 Wind:000º@076 Knots Heading: 065º Ground Speed: 420 Knots Altitude 37463 ft
11:58 Wind:000º@063 Knots Heading: 095º Ground Speed: 453 Knots Altitude 37460 ft
12:09 TOD
12:09 Fuel Weight: 9315 Lb
12:13 Wind:354º@066 Knots Heading: 081º Ground Speed: 386 Knots Altitude 25849 ft
12:28 Wind:312º@010 Knots Heading: 091º Ground Speed: 268 Knots Altitude 5367 ft
12:33 Flaps:1 at 207 Knots
12:33 Gear Down: 209 Knots
12:33 Flaps:3 at 209 Knots
12:34 Flaps:4 at 155 Knots
12:35 Flaps:5 at 147 Knots
12:38 TouchDown:Rate -96 ft/min Speed: 132 Knots
12:38 VATSIM:LDSP 051230Z 36015KT 300V060 CAVOK 09/M09 Q1027 NOSIG
12:38 Land
12:38 Wind:356º@014 Knots
12:38 Heading: 051º
12:38 Flight Duration: 01:40
12:38 Landing Weight: 125968 Lbs
12:38 POS N43º 32´ 27´´ E016º 18´ 05´´
12:40 Parking brakes on
12:40 Block to Block Duration: 01:45
12:40 Final Fuel: 6719 Lbls
12:40 Spent Fuel: 11962 Lbls
12:40 Flight Length: 638 NM
12:40 TOD Land Length: 136 NM

Exportar CSV

Powered by Drupal - Modified by Danger4k